Time;durP1;ratioP1;P1;durP2;ratioP2;P2;SDS_P1;SDS_P2;PMS_P1;PMS_P2;Temp;Humidity;BMP_temperature;BMP_pressure;BME280_temperature;BME280_humidity;BME280_pressure;Samples;Min_cycle;Max_cycle;Signal;HPM_P1;HPM_P2
2020/12/25 00:01:33;;;;;;;2.00;1.67;;;1.60;89.10;;;2.03;73.65;97364.06;5008865;28;20048;-44
2020/12/25 00:04:01;;;;;;;1.60;1.10;;;1.60;88.70;;;1.96;73.74;97362.88;5008964;28;20046;-44
2020/12/25 00:06:37;;;;;;;1.10;0.87;;;1.50;88.70;;;1.98;73.58;97374.09;5008351;28;20241;-43
2020/12/25 00:09:05;;;;;;;1.97;1.23;;;1.50;88.60;;;2.07;73.91;97380.44;5008815;28;20046;-44
2020/12/25 00:11:37;;;;;;;1.53;0.93;;;1.60;88.70;;;2.10;73.81;97381.06;5008736;28;20053;-44
2020/12/25 00:14:05;;;;;;;1.47;1.10;;;1.60;88.20;;;1.99;73.85;97382.81;5023516;28;20065;-48
2020/12/25 00:16:33;;;;;;;1.77;1.00;;;1.60;88.70;;;1.86;73.85;97380.25;5008117;28;20049;-44
2020/12/25 00:19:00;;;;;;;1.37;0.90;;;1.40;89.10;;;1.63;74.96;97374.06;5008692;28;20042;-44
2020/12/25 00:21:27;;;;;;;1.03;0.70;;;1.30;89.60;;;1.60;75.31;97374.28;5008882;28;20053;-44
2020/12/25 00:23:55;;;;;;;1.30;0.90;;;1.30;89.80;;;1.63;75.02;97368.81;5008661;28;20053;-44
2020/12/25 00:26:29;;;;;;;2.80;1.10;;;1.30;90.40;;;1.60;74.49;97383.00;5006561;28;20057;-45
2020/12/25 00:28:58;;;;;;;;;;;1.20;90.10;;;1.59;74.99;97373.47;5009007;28;20362;-45
2020/12/25 00:31:36;;;;;;;1.17;0.90;;;1.30;90.10;;;1.60;75.06;97390.03;5008573;28;19924;-46
2020/12/25 00:34:07;;;;;;;1.40;1.10;;;1.30;90.10;;;1.73;74.45;97380.31;5008483;28;20250;-45
2020/12/25 00:36:37;;;;;;;1.30;1.00;;;1.40;89.60;;;1.67;74.74;97386.84;5022699;28;20054;-45
2020/12/25 00:39:10;;;;;;;1.57;1.10;;;1.40;89.40;;;1.86;74.08;97386.34;5023527;28;20050;-45
2020/12/25 00:41:46;;;;;;;0.83;0.73;;;1.50;89.00;;;1.90;73.74;97381.69;5008687;28;20054;-46
2020/12/25 00:44:14;;;;;;;1.43;1.10;;;1.50;88.50;;;2.01;73.70;97378.28;5008299;28;20384;-44
2020/12/25 00:46:43;;;;;;;1.73;1.00;;;1.60;88.30;;;1.99;73.38;97378.38;5008016;28;20088;-48
2020/12/25 00:49:11;;;;;;;2.27;1.50;;;1.60;88.00;;;1.99;73.67;97381.00;5023454;28;20064;-45
2020/12/25 00:51:39;;;;;;;1.80;1.40;;;1.60;88.30;;;2.03;73.79;97373.75;5007842;28;20354;-45
2020/12/25 00:54:06;;;;;;;2.20;1.50;;;1.60;88.40;;;1.99;73.55;97382.81;5006621;28;20058;-45
2020/12/25 00:56:47;;;;;;;2.57;1.90;;;1.60;88.40;;;1.93;73.71;97384.09;5003191;28;20051;-44
2020/12/25 00:59:18;;;;;;;2.70;1.63;;;1.50;89.00;;;2.02;74.09;97386.03;5020090;28;20058;-44
2020/12/25 01:01:49;;;;;;;2.70;1.73;;;1.60;88.40;;;2.05;73.54;97380.53;5005056;28;20056;-48
2020/12/25 01:04:20;;;;;;;2.03;1.40;;;1.60;88.50;;;2.09;73.25;97384.63;5005243;28;20053;-43
2020/12/25 01:06:47;;;;;;;2.80;1.70;;;1.60;88.70;;;2.13;73.52;97391.34;5003559;28;20062;-44
2020/12/25 01:09:15;;;;;;;2.43;1.80;;;1.70;88.20;;;2.06;74.22;97399.78;5004976;28;20060;-45
2020/12/25 01:11:42;;;;;;;3.17;1.80;;;1.70;88.50;;;2.08;73.50;97392.63;5005003;28;20052;-45
2020/12/25 01:14:10;;;;;;;2.43;1.67;;;1.70;88.80;;;2.14;73.45;97392.16;5005103;28;20238;-46
2020/12/25 01:16:37;;;;;;;1.97;1.40;;;1.80;88.50;;;2.01;74.30;97394.84;5004411;28;20042;-44
2020/12/25 01:19:04;;;;;;;2.23;1.97;;;1.70;88.60;;;2.04;74.37;97401.69;5004798;28;20334;-46
2020/12/25 01:21:32;;;;;;;4.90;2.20;;;1.70;89.00;;;2.16;73.88;97406.03;5004717;28;20034;-44
2020/12/25 01:23:59;;;;;;;3.23;2.10;;;1.80;88.80;;;2.11;73.73;97402.88;5004717;28;20052;-46
2020/12/25 01:26:26;;;;;;;2.73;1.60;;;1.80;88.40;;;2.07;74.04;97411.94;5004493;28;20054;-45
2020/12/25 01:29:03;;;;;;;3.83;1.70;;;1.80;88.70;;;2.02;74.40;97414.94;5004699;28;20250;-46
2020/12/25 01:31:30;;;;;;;2.50;1.90;;;1.70;89.10;;;1.84;74.85;97417.13;5004426;28;20054;-44
2020/12/25 01:33:58;;;;;;;4.00;2.30;;;1.60;89.90;;;1.93;74.61;97412.97;5004761;28;20246;-46
2020/12/25 01:36:26;;;;;;;3.57;2.47;;;1.60;89.80;;;1.89;74.85;97417.59;5004041;28;20048;-45
2020/12/25 01:38:53;;;;;;;3.93;2.17;;;1.60;89.90;;;1.86;74.79;97419.63;5019611;28;20171;-44
2020/12/25 01:41:22;;;;;;;3.67;2.13;;;1.60;89.70;;;1.90;75.34;97427.19;5004334;28;20081;-46
2020/12/25 01:43:49;;;;;;;3.63;2.17;;;1.70;90.00;;;1.82;75.41;97436.53;5004449;28;20042;-45
2020/12/25 01:46:17;;;;;;;4.17;3.00;;;1.60;90.20;;;1.89;75.36;97437.78;5003845;28;20244;-46
2020/12/25 01:48:44;;;;;;;4.77;3.57;;;1.70;90.00;;;1.86;75.05;97438.00;5019471;28;20054;-47
2020/12/25 01:51:16;;;;;;;5.13;3.00;;;1.60;90.40;;;1.82;75.93;97440.00;5004675;28;20064;-46
2020/12/25 01:53:44;;;;;;;3.83;2.60;;;1.60;90.30;;;1.93;74.92;97441.84;5019034;28;20052;-45
2020/12/25 01:56:14;;;;;;;3.33;2.30;;;1.70;90.30;;;1.75;75.40;97438.78;5003648;28;20054;-44
2020/12/25 01:58:41;;;;;;;4.37;2.67;;;1.60;90.50;;;1.83;76.18;97446.13;5018696;28;20335;-45
2020/12/25 02:01:10;;;;;;;4.03;2.60;;;1.70;90.60;;;1.89;75.35;97451.75;5003907;28;20069;-45
2020/12/25 02:03:38;;;;;;;4.73;3.00;;;1.70;90.30;;;1.86;75.55;97454.59;5004030;28;20050;-49
2020/12/25 02:06:05;;;;;;;4.50;3.00;;;1.70;90.70;;;1.87;75.66;97453.63;5002941;28;20437;-46
2020/12/25 02:08:33;;;;;;;4.80;2.80;;;1.70;90.20;;;1.80;76.05;97452.41;5003965;28;20356;-44
2020/12/25 02:11:00;;;;;;;4.53;2.80;;;1.70;90.60;;;1.79;76.03;97461.25;5003971;28;20369;-45
2020/12/25 02:13:30;;;;;;;3.77;2.47;;;1.70;90.50;;;1.99;75.66;97472.09;5003840;28;20341;-46
2020/12/25 02:15:58;;;;;;;6.30;3.23;;;1.80;90.10;;;1.99;76.10;97470.28;5017876;28;20241;-46
2020/12/25 02:18:43;;;;;;;7.00;3.03;;;1.90;89.90;;;1.96;76.02;97475.78;5001738;28;20048;-49
2020/12/25 02:21:11;;;;;;;7.47;3.20;;;1.80;89.80;;;1.97;75.39;97477.44;5003577;28;20046;-44
2020/12/25 02:23:38;;;;;;;4.90;3.40;;;1.80;90.20;;;2.12;75.45;97480.75;5003093;28;20060;-47
2020/12/25 02:26:06;;;;;;;5.50;3.07;;;1.90;89.80;;;2.16;75.73;97484.81;5003345;28;20064;-47
2020/12/25 02:28:33;;;;;;;4.93;2.53;;;2.00;89.20;;;2.25;75.33;97489.41;5003516;28;20050;-45
2020/12/25 02:31:01;;;;;;;5.40;3.10;;;2.10;89.30;;;2.23;74.96;97491.31;5018571;28;20052;-47
2020/12/25 02:33:28;;;;;;;6.40;3.37;;;2.00;89.10;;;2.22;74.86;97502.75;5003791;28;20054;-45
2020/12/25 02:35:55;;;;;;;5.87;3.70;;;2.00;89.10;;;2.12;75.76;97488.63;5002962;28;20060;-49
2020/12/25 02:38:23;;;;;;;4.70;3.37;;;2.00;89.60;;;2.16;75.63;97493.53;5003216;28;20303;-48
2020/12/25 02:40:51;;;;;;;3.93;2.70;;;1.90;89.70;;;2.25;75.19;97499.06;5003299;28;20076;-46
2020/12/25 02:43:18;;;;;;;4.90;3.23;;;2.10;89.40;;;2.19;75.56;97495.13;5003317;28;20053;-47
2020/12/25 02:45:46;;;;;;;5.83;3.27;;;2.00;89.60;;;2.19;75.15;97502.13;5002372;28;20046;-48
2020/12/25 02:48:13;;;;;;;5.90;3.23;;;2.00;89.60;;;2.27;74.82;97505.88;5003557;28;20046;-45
2020/12/25 02:50:41;;;;;;;5.23;3.03;;;2.00;89.20;;;2.21;75.35;97502.84;5003079;28;20072;-45
2020/12/25 02:53:09;;;;;;;5.00;3.20;;;2.00;89.30;;;2.15;75.25;97506.75;5003117;28;20073;-46
2020/12/25 02:55:36;;;;;;;6.37;2.87;;;2.00;89.80;;;2.31;75.36;97512.59;5002684;28;20235;-45
2020/12/25 02:58:04;;;;;;;4.13;2.83;;;2.10;89.60;;;2.19;75.51;97516.13;5003102;28;20222;-45
2020/12/25 03:00:31;;;;;;;7.60;3.73;;;2.00;89.40;;;2.26;75.58;97512.06;5003028;28;20057;-46
2020/12/25 03:02:58;;;;;;;4.57;2.97;;;2.10;89.40;;;2.14;76.08;97515.59;5003304;28;20050;-44
2020/12/25 03:05:32;;;;;;;6.63;3.25;;;2.00;89.80;;;2.09;76.29;97517.72;5002454;28;20069;-44
2020/12/25 03:08:00;;;;;;;5.90;3.97;;;1.90;89.90;;;2.21;75.89;97516.84;5002806;28;20054;-45
2020/12/25 03:10:27;;;;;;;5.33;3.13;;;2.00;89.60;;;2.19;75.35;97503.00;5002884;28;20058;-44
2020/12/25 03:12:55;;;;;;;4.57;2.90;;;2.00;89.80;;;2.12;76.29;97507.00;5002964;28;20346;-44
2020/12/25 03:15:24;;;;;;;4.60;3.27;;;1.90;90.00;;;2.08;75.63;97509.00;5002427;28;20056;-48
2020/12/25 03:17:51;;;;;;;5.10;3.70;;;1.90;90.30;;;2.21;76.14;97518.63;5001890;28;20034;-47
2020/12/25 03:20:19;;;;;;;5.50;3.80;;;2.00;90.00;;;2.29;75.44;97517.13;5002537;28;20050;-46
2020/12/25 03:22:46;;;;;;;5.57;3.33;;;2.10;90.90;;;2.26;75.72;97516.50;5002715;28;20042;-46
2020/12/25 03:25:13;;;;;;;6.50;3.50;;;2.00;89.60;;;2.36;75.04;97518.34;5001985;28;20072;-45
2020/12/25 03:27:41;;;;;;;5.53;3.50;;;2.10;90.10;;;2.34;75.01;97517.59;5002607;28;20245;-46
2020/12/25 03:30:08;;;;;;;5.60;3.30;;;2.10;89.50;;;2.37;75.50;97524.44;5002569;28;20246;-45
2020/12/25 03:32:36;;;;;;;4.60;3.07;;;2.10;89.60;;;2.40;75.01;97526.81;5002439;28;20358;-45
2020/12/25 03:35:03;;;;;;;6.67;3.43;;;2.20;89.40;;;2.44;75.38;97530.06;5002149;28;20064;-45
2020/12/25 03:37:30;;;;;;;6.47;3.10;;;2.20;89.20;;;2.38;75.42;97517.38;5002549;28;20054;-49
2020/12/25 03:39:58;;;;;;;4.57;2.93;;;2.10;89.40;;;2.27;75.18;97532.16;5002549;28;20238;-47
2020/12/25 03:42:26;;;;;;;6.37;3.30;;;2.00;89.80;;;2.35;75.19;97531.59;5017611;28;20046;-45
2020/12/25 03:44:54;;;;;;;5.37;3.43;;;2.00;89.90;;;2.39;74.68;97526.97;5002045;28;20251;-44
2020/12/25 03:47:25;;;;;;;7.43;3.80;;;2.10;90.30;;;2.28;75.14;97531.19;5002453;28;20046;-47
2020/12/25 03:49:53;;;;;;;5.90;3.20;;;2.00;90.60;;;2.21;75.63;97529.97;5002846;28;20054;-45
2020/12/25 03:52:23;;;;;;;6.37;3.47;;;2.00;90.40;;;2.23;75.72;97525.47;5017469;28;20056;-47
2020/12/25 03:54:51;;;;;;;4.70;3.30;;;2.00;90.80;;;2.20;75.30;97533.53;5002016;28;20354;-45
2020/12/25 03:57:18;;;;;;;5.53;3.60;;;1.90;90.30;;;2.24;75.34;97536.78;5002127;28;20073;-47
2020/12/25 03:59:46;;;;;;;6.70;4.37;;;2.00;90.60;;;2.32;75.34;97535.25;5002805;28;20342;-44
2020/12/25 04:02:13;;;;;;;4.93;3.80;;;2.00;90.60;;;2.25;75.33;97543.72;5002331;28;20057;-47
2020/12/25 04:04:41;;;;;;;6.33;3.80;;;2.00;89.80;;;2.26;75.14;97537.53;5001616;28;20286;-44
2020/12/25 04:07:08;;;;;;;4.30;3.17;;;1.90;90.20;;;2.20;75.69;97543.22;5001812;28;20060;-48
2020/12/25 04:09:35;;;;;;;5.93;3.77;;;1.90;90.50;;;2.14;75.68;97545.34;5002222;28;20054;-46
2020/12/25 04:12:03;;;;;;;7.10;4.03;;;1.90;90.40;;;2.24;75.51;97553.38;5002181;28;20057;-48
2020/12/25 04:14:30;;;;;;;5.20;3.30;;;1.90;90.90;;;2.08;75.72;97552.84;5002336;28;20060;-46
2020/12/25 04:16:58;;;;;;;5.83;3.83;;;1.80;90.60;;;2.10;76.26;97551.75;5001642;28;20050;-45
2020/12/25 04:19:25;;;;;;;5.87;3.73;;;1.80;90.70;;;2.20;74.94;97556.34;5002462;28;20346;-45
2020/12/25 04:21:53;;;;;;;5.97;3.57;;;1.90;90.60;;;2.23;75.53;97553.50;5001766;28;20050;-48
2020/12/25 04:24:20;;;;;;;5.50;3.50;;;1.90;90.70;;;2.27;75.69;97553.19;5002301;28;20054;-45
2020/12/25 04:26:48;;;;;;;4.97;3.30;;;2.00;90.10;;;2.23;75.80;97561.38;5001568;28;20265;-45
2020/12/25 04:29:16;;;;;;;7.37;4.27;;;1.90;90.10;;;2.34;74.89;97558.81;5002429;28;20046;-46
2020/12/25 04:31:44;;;;;;;5.70;3.83;;;2.00;90.10;;;2.47;74.87;97561.38;4988345;28;20046;-45
2020/12/25 04:34:11;;;;;;;5.17;3.70;;;2.10;90.00;;;2.42;74.91;97569.59;5004593;28;20053;-46
2020/12/25 04:36:39;;;;;;;8.60;4.67;;;2.10;89.90;;;2.42;75.28;97574.00;5019869;28;20054;-47
2020/12/25 04:39:08;;;;;;;8.67;3.80;;;2.10;89.50;;;2.14;75.33;97587.34;5005472;28;20058;-45
2020/12/25 04:41:36;;;;;;;5.60;3.63;;;1.90;90.10;;;2.20;75.87;97574.75;5005523;28;20249;-45
2020/12/25 04:44:06;;;;;;;8.73;5.37;;;1.90;90.30;;;2.27;74.85;97579.44;5005692;28;20042;-44
2020/12/25 04:46:34;;;;;;;13.67;6.47;;;1.90;90.30;;;2.32;74.88;97579.09;5005114;28;20050;-48
2020/12/25 04:49:01;;;;;;;9.60;5.23;;;2.00;90.30;;;2.36;74.84;97586.66;5005805;28;20054;-49
2020/12/25 04:51:29;;;;;;;7.13;4.10;;;2.00;90.10;;;2.37;74.87;97590.13;5005307;28;20228;-45
2020/12/25 04:53:56;;;;;;;7.13;3.90;;;2.00;89.70;;;2.45;74.62;97594.81;5005304;28;20050;-46
2020/12/25 04:56:24;;;;;;;5.67;4.07;;;2.10;89.70;;;2.30;75.33;97588.88;5004915;28;20066;-45
2020/12/25 04:58:53;;;;;;;6.83;4.47;;;2.00;89.60;;;2.23;75.00;97593.75;5005442;28;20222;-48
2020/12/25 05:01:21;;;;;;;8.70;4.77;;;1.90;90.30;;;2.34;75.34;97601.69;5005197;28;20068;-47
2020/12/25 05:03:48;;;;;;;6.57;3.93;;;2.00;90.80;;;2.35;74.96;97607.78;5005207;28;20042;-46
2020/12/25 05:06:18;;;;;;;5.80;4.33;;;2.00;89.40;;;2.35;74.65;97598.09;5004520;28;20226;-46
2020/12/25 05:08:51;;;;;;;8.83;4.73;;;2.00;89.60;;;2.39;75.08;97600.53;5005044;28;20046;-46
2020/12/25 05:11:22;;;;;;;6.57;4.43;;;2.00;89.90;;;2.31;74.98;97609.78;5004916;28;20054;-49
2020/12/25 05:13:51;;;;;;;9.37;5.03;;;2.00;89.90;;;2.32;75.04;97614.09;5005029;28;20054;-45
2020/12/25 05:16:22;;;;;;;7.73;4.77;;;2.00;89.80;;;2.28;74.92;97610.00;5004903;28;20054;-46
2020/12/25 05:18:53;;;;;;;7.67;4.73;;;2.00;90.50;;;2.30;75.61;97618.59;5003388;28;20257;-50
2020/12/25 05:21:22;;;;;;;7.40;4.67;;;2.00;90.10;;;2.40;74.74;97618.78;5003962;28;20038;-48
2020/12/25 05:23:50;;;;;;;7.07;5.20;;;2.00;89.80;;;2.25;75.08;97623.38;5004793;28;20054;-46
2020/12/25 05:26:18;;;;;;;7.50;4.90;;;1.90;90.10;;;2.36;74.65;97617.34;5004508;28;20054;-46
2020/12/25 05:28:49;;;;;;;7.67;4.70;;;2.00;90.10;;;2.21;75.63;97624.56;5004665;28;20050;-45
2020/12/25 05:31:18;;;;;;;8.67;5.80;;;1.90;90.10;;;2.27;75.52;97618.84;5032276;23;20068;-43
2020/12/25 05:33:49;;;;;;;5.90;4.03;;;1.90;90.10;;;2.25;75.54;97630.41;5023596;28;20355;-45
2020/12/25 05:36:17;;;;;;;7.90;5.17;;;2.00;90.10;;;2.33;75.25;97635.97;5006554;28;20060;-43
2020/12/25 05:38:50;;;;;;;8.13;5.50;;;2.00;90.30;;;2.35;75.46;97632.28;5023581;28;20050;-44
2020/12/25 05:41:18;;;;;;;8.67;5.57;;;2.00;90.10;;;2.44;75.01;97632.53;5023025;28;20048;-42
2020/12/25 05:43:49;;;;;;;9.37;5.73;;;2.00;89.80;;;2.36;75.22;97638.34;5006930;28;20056;-43
2020/12/25 05:46:17;;;;;;;8.97;5.10;;;2.00;89.90;;;2.44;75.29;97648.31;5023577;28;20046;-45
2020/12/25 05:48:58;;;;;;;10.83;5.40;;;2.10;90.00;;;2.47;74.54;97651.56;5023927;28;20076;-44
2020/12/25 05:51:25;;;;;;;8.97;5.30;;;2.10;89.80;;;2.45;74.73;97642.94;5007158;28;20249;-44
2020/12/25 05:53:54;;;;;;;9.80;5.97;;;2.10;89.80;;;2.41;74.63;97653.81;5023153;28;20376;-42
2020/12/25 05:56:21;;;;;;;11.60;5.70;;;2.00;89.80;;;2.46;74.83;97649.03;5023301;28;20046;-44
2020/12/25 05:58:50;;;;;;;9.33;6.50;;;2.10;90.20;;;2.45;75.41;97652.63;5023739;28;20040;-44
2020/12/25 06:01:17;;;;;;;8.93;5.13;;;2.10;89.90;;;2.47;74.66;97658.63;5003738;28;20037;-44
2020/12/25 06:03:46;;;;;;;11.47;6.37;;;2.10;89.70;;;2.44;74.89;97657.03;5005922;28;20054;-43
2020/12/25 06:06:14;;;;;;;9.20;5.27;;;2.00;89.60;;;2.54;74.67;97659.88;5023187;28;20052;-47
2020/12/25 06:09:05;;;;;;;10.67;6.20;;;2.10;89.90;;;2.62;74.43;97654.88;5023190;28;20057;-47
2020/12/25 06:11:33;;;;;;;9.73;6.33;;;2.20;89.40;;;2.70;74.59;97656.97;5005942;28;20376;-43
2020/12/25 06:14:00;;;;;;;9.60;6.03;;;2.30;89.60;;;2.64;74.27;97671.38;5023497;28;20049;-46
2020/12/25 06:16:29;;;;;;;9.40;5.57;;;2.20;88.90;;;2.55;74.81;97665.00;5023380;28;20222;-44
2020/12/25 06:19:19;;;;;;;9.93;5.47;;;2.10;88.80;;;2.60;74.20;97671.69;5005300;28;20386;-47
2020/12/25 06:21:55;;;;;;;9.77;5.00;;;2.10;88.80;;;2.53;74.25;97676.56;5007111;28;20065;-45
2020/12/25 06:24:30;;;;;;;9.07;5.00;;;2.10;88.70;;;2.49;74.35;97680.38;5005690;28;20054;-43
2020/12/25 06:27:02;;;;;;;10.60;5.90;;;2.00;88.80;;;2.50;74.31;97682.91;5006039;28;20252;-44
2020/12/25 06:29:30;;;;;;;9.73;4.90;;;2.00;89.40;;;2.42;74.71;97685.22;5023150;28;20060;-46
2020/12/25 06:32:00;;;;;;;9.60;5.07;;;1.90;89.20;;;2.40;74.19;97684.47;5022260;28;20080;-42
2020/12/25 06:34:49;;;;;;;9.33;5.47;;;1.90;89.50;;;2.23;74.62;97682.22;5023075;28;20054;-46
2020/12/25 06:37:18;;;;;;;9.37;5.63;;;1.80;89.00;;;2.21;75.02;97691.97;5023063;28;20050;-45
2020/12/25 06:39:54;;;;;;;9.30;5.53;;;1.70;90.00;;;2.09;74.46;97691.88;5022957;28;20056;-44
2020/12/25 06:42:37;;;;;;;10.23;5.33;;;1.60;89.80;;;2.05;74.39;97692.22;5022853;28;20057;-45
2020/12/25 06:45:10;;;;;;;9.20;5.03;;;1.60;90.20;;;2.08;74.91;97695.47;5022177;28;20054;-43
2020/12/25 06:47:40;;;;;;;9.17;5.40;;;1.60;89.80;;;2.08;74.74;97705.97;5022865;28;20287;-45
2020/12/25 06:50:13;;;;;;;9.13;5.67;;;1.70;89.50;;;2.14;74.22;97710.81;5022863;28;20056;-45
2020/12/25 06:52:55;;;;;;;8.57;5.93;;;1.70;89.60;;;2.19;74.77;97713.13;5022600;28;20349;-43
2020/12/25 06:55:24;;;;;;;7.13;4.70;;;1.80;89.10;;;2.24;74.08;97712.78;5022320;28;20045;-45
2020/12/25 06:57:55;;;;;;;9.77;5.03;;;1.80;88.50;;;2.23;73.71;97713.72;5022463;28;20250;-45
2020/12/25 07:00:25;;;;;;;8.27;4.97;;;1.80;89.10;;;2.15;74.14;97717.75;5022413;28;20063;-47
2020/12/25 07:02:53;;;;;;;10.63;5.17;;;1.60;89.00;;;2.08;74.52;97718.28;5021795;28;20350;-44
2020/12/25 07:05:23;;;;;;;8.13;4.77;;;1.60;88.90;;;2.08;74.42;97718.28;5022025;28;20075;-44
2020/12/25 07:08:06;;;;;;;8.57;5.18;;;1.60;89.20;;;1.97;74.79;97727.72;5007375;28;20249;-47
2020/12/25 07:10:35;;;;;;;7.90;4.90;;;1.50;89.90;;;1.96;74.50;97726.06;5022499;28;20045;-45
2020/12/25 07:13:02;;;;;;;8.50;5.23;;;1.50;89.80;;;1.87;74.54;97737.19;4989130;28;20058;-45
2020/12/25 07:15:30;;;;;;;9.03;4.67;;;1.40;90.20;;;1.92;74.11;97736.84;5021969;28;20053;-43
2020/12/25 07:17:57;;;;;;;10.00;5.33;;;1.40;90.00;;;1.89;74.54;97745.78;5021971;28;20048;-43
2020/12/25 07:20:28;;;;;;;10.00;5.40;;;1.50;89.80;;;2.05;73.92;97742.13;5022589;28;20359;-44
2020/12/25 07:22:55;;;;;;;8.30;4.83;;;1.60;89.80;;;1.95;74.67;97742.75;5022326;28;20079;-43
2020/12/25 07:25:22;;;;;;;8.70;4.63;;;1.50;89.70;;;1.90;74.46;97747.50;5004645;28;20079;-43
2020/12/25 07:27:50;;;;;;;11.40;6.20;;;1.50;89.30;;;1.91;74.34;97754.41;5022319;28;20045;-43
2020/12/25 07:30:18;;;;;;;9.23;5.17;;;1.50;89.70;;;1.93;74.73;97754.31;5022040;28;20038;-44
2020/12/25 07:32:46;;;;;;;11.47;5.57;;;1.50;90.20;;;1.94;74.93;97753.38;5022265;28;20046;-44
2020/12/25 07:35:13;;;;;;;9.90;5.73;;;1.50;90.20;;;1.92;74.63;97757.88;5021768;28;20034;-43
2020/12/25 07:37:41;;;;;;;9.20;4.90;;;1.50;89.80;;;1.92;74.53;97760.50;5022473;28;20050;-44
2020/12/25 07:40:08;;;;;;;9.47;5.57;;;1.50;89.60;;;1.97;74.98;97759.22;5004778;28;20049;-43
2020/12/25 07:42:39;;;;;;;12.57;5.97;;;1.50;90.30;;;2.04;74.29;97762.28;5022004;28;20045;-44
2020/12/25 07:45:07;;;;;;;10.23;5.73;;;1.60;89.80;;;2.02;74.92;97772.06;5020963;28;20049;-45
2020/12/25 07:47:40;;;;;;;8.83;5.53;;;1.60;89.40;;;1.95;75.07;97774.25;5022013;28;20038;-43
2020/12/25 07:50:08;;;;;;;12.07;6.47;;;1.60;89.80;;;1.95;75.22;97776.88;5022177;28;20041;-44
2020/12/25 07:52:35;;;;;;;11.77;6.50;;;1.60;90.30;;;2.02;74.98;97782.56;5021979;28;20041;-44
2020/12/25 07:55:23;;;;;;;9.90;5.97;;;1.60;90.30;;;2.10;75.04;97780.25;5021611;28;20049;-45
2020/12/25 07:57:51;;;;;;;10.33;6.00;;;1.70;89.70;;;2.16;74.84;97787.72;5020036;28;20048;-43
2020/12/25 08:00:18;;;;;;;11.53;6.63;;;1.80;89.60;;;2.16;74.36;97781.63;5003852;28;20048;-44
2020/12/25 08:02:47;;;;;;;11.37;6.60;;;1.80;89.30;;;2.13;74.78;97787.94;5019269;28;20052;-44
2020/12/25 08:05:14;;;;;;;11.67;6.60;;;1.70;89.60;;;2.19;74.34;97793.69;5005556;28;20054;-49
2020/12/25 08:07:42;;;;;;;12.17;6.27;;;1.70;90.00;;;2.05;74.85;97800.72;5025049;28;20054;-45
2020/12/25 08:10:17;;;;;;;12.37;7.27;;;1.70;90.40;;;2.09;75.20;97796.94;5027063;28;20341;-46
2020/12/25 08:12:53;;;;;;;11.67;6.87;;;1.70;90.50;;;2.05;75.58;97794.66;5007912;28;20053;-48
2020/12/25 08:15:21;;;;;;;15.93;8.40;;;1.70;90.80;;;2.18;74.92;97798.13;5024340;28;20060;-46
2020/12/25 08:17:59;;;;;;;14.43;7.70;;;1.80;90.80;;;2.25;74.79;97803.78;5024854;28;20050;-44
2020/12/25 08:20:27;;;;;;;14.37;7.67;;;1.90;90.20;;;2.26;75.03;97803.69;5024395;28;20253;-44
2020/12/25 08:22:59;;;;;;;13.07;7.03;;;1.90;90.20;;;2.33;74.57;97804.13;5007131;28;20250;-44
2020/12/25 08:25:29;;;;;;;19.60;9.50;;;2.00;90.20;;;2.35;74.89;97802.22;5024102;28;20060;-47
2020/12/25 08:27:58;;;;;;;15.73;8.03;;;2.00;90.10;;;2.42;74.50;97803.47;5024075;28;20226;-49
2020/12/25 08:30:26;;;;;;;15.43;8.10;;;2.00;90.20;;;2.42;75.15;97807.88;5023161;28;20062;-45
2020/12/25 08:32:59;;;;;;;15.17;8.03;;;2.10;90.40;;;2.51;74.73;97807.25;5007418;28;20046;-44
2020/12/25 08:35:30;;;;;;;18.27;8.03;;;2.10;90.30;;;2.55;74.67;97806.91;5023648;28;20052;-44
2020/12/25 08:38:02;;;;;;;13.97;8.07;;;2.20;89.70;;;2.62;74.62;97809.97;5024842;28;20056;-44
2020/12/25 08:40:38;;;;;;;15.57;8.17;;;2.30;89.80;;;2.70;74.70;97805.00;5024602;28;20206;-44
2020/12/25 08:43:17;;;;;;;13.10;7.13;;;2.30;89.60;;;2.68;74.37;97814.78;5024325;28;20058;-48
2020/12/25 08:45:59;;;;;;;13.93;7.10;;;2.30;89.60;;;2.55;75.64;97824.47;5023856;28;20273;-45
2020/12/25 08:48:52;;;;;;;14.83;8.57;;;2.20;90.10;;;2.64;74.53;97812.50;5018431;28;20050;-44
2020/12/25 08:51:20;;;;;;;16.83;8.63;;;2.20;90.30;;;2.68;74.77;97827.94;5023992;28;20058;-45
2020/12/25 08:53:53;;;;;;;16.00;8.67;;;2.30;90.30;;;2.77;74.84;97834.31;5023699;28;20058;-45
2020/12/25 08:56:27;;;;;;;15.53;8.37;;;2.40;90.20;;;2.81;74.75;97822.69;5033732;28;20046;-44
2020/12/25 08:58:57;;;;;;;;;;;2.50;90.00;;;2.83;74.11;97833.06;5004687;28;20053;-43
2020/12/25 09:01:25;;;;;;;13.77;7.50;;;2.50;90.10;;;2.88;74.44;97838.84;5002958;28;19918;-44
2020/12/25 09:03:53;;;;;;;17.37;7.83;;;2.50;89.80;;;2.85;74.47;97839.91;5004449;28;20054;-43
2020/12/25 09:06:21;;;;;;;13.13;7.30;;;2.50;90.00;;;2.80;74.98;97847.28;5003293;28;20542;-46
2020/12/25 09:08:48;;;;;;;17.50;7.87;;;2.50;89.70;;;2.81;75.14;97859.50;5004187;28;20339;-44
2020/12/25 09:11:20;;;;;;;13.97;7.97;;;2.50;90.00;;;2.85;74.70;97855.69;5004159;28;20242;-45
2020/12/25 09:13:47;;;;;;;15.53;9.33;;;2.50;90.00;;;2.88;74.63;97863.34;5003132;28;20038;-45
2020/12/25 09:16:15;;;;;;;17.03;8.43;;;2.60;89.70;;;2.91;74.81;97863.13;5003085;28;20047;-44
2020/12/25 09:18:43;;;;;;;18.87;9.43;;;2.60;89.60;;;2.94;75.00;97873.44;5003486;28;20246;-44
2020/12/25 09:21:12;;;;;;;12.47;7.37;;;2.60;88.90;;;2.98;74.40;97870.59;5019995;28;20046;-46
2020/12/25 09:23:40;;;;;;;13.03;7.40;;;2.60;88.90;;;3.04;74.33;97872.78;5023936;28;20049;-45
2020/12/25 09:26:11;;;;;;;14.77;8.27;;;2.70;89.20;;;3.03;74.29;97876.38;5023832;28;20046;-44
2020/12/25 09:28:39;;;;;;;14.53;7.73;;;2.80;88.80;;;3.00;75.00;97873.97;5024407;28;20265;-45
2020/12/25 09:31:10;;;;;;;12.03;8.10;;;2.70;89.00;;;3.08;74.41;97885.63;5024181;28;20046;-43
2020/12/25 09:33:37;;;;;;;11.07;7.40;;;2.80;89.20;;;3.09;74.78;97878.56;5024309;28;20060;-43
2020/12/25 09:36:06;;;;;;;13.43;7.23;;;2.80;88.80;;;3.10;74.56;97878.47;5023410;28;20060;-44
2020/12/25 09:38:36;;;;;;;15.43;7.73;;;2.80;89.00;;;3.08;74.52;97887.41;5023927;28;20057;-45
2020/12/25 09:41:03;;;;;;;9.83;7.17;;;2.80;89.00;;;3.02;74.46;97890.47;5007125;28;20046;-43
2020/12/25 09:43:32;;;;;;;9.83;6.17;;;2.70;89.10;;;3.03;74.51;97892.16;5023818;28;20046;-44
2020/12/25 09:45:59;;;;;;;8.90;6.10;;;2.70;89.60;;;2.95;75.03;97893.53;5022825;28;20162;-42
2020/12/25 09:48:27;;;;;;;10.33;6.90;;;2.70;89.20;;;3.01;74.46;97891.44;5023742;28;20044;-42
2020/12/25 09:50:55;;;;;;;11.63;7.03;;;2.70;89.40;;;2.99;74.71;97893.34;5020726;28;20249;-45
2020/12/25 09:53:23;;;;;;;12.63;6.73;;;2.70;89.60;;;3.07;74.47;97898.88;5020473;28;20052;-45
2020/12/25 09:55:53;;;;;;;13.00;6.23;;;2.80;88.90;;;3.12;74.50;97896.75;5019129;28;20060;-43
2020/12/25 09:58:21;;;;;;;13.20;7.47;;;2.80;88.90;;;3.20;74.70;97904.97;5023439;28;20045;-43
2020/12/25 10:00:51;;;;;;;13.20;6.47;;;2.90;89.00;;;3.25;74.79;97910.72;5004836;28;20052;-45
2020/12/25 10:03:19;;;;;;;12.13;6.80;;;3.00;88.50;;;3.29;74.39;97916.63;5023579;28;20045;-47
2020/12/25 10:05:47;;;;;;;9.40;5.43;;;3.00;88.20;;;3.29;74.33;97906.09;5023199;28;20050;-45
2020/12/25 10:08:14;;;;;;;8.47;4.93;;;3.10;87.10;;;3.22;73.71;97907.47;5023285;28;20364;-45
2020/12/25 10:10:42;;;;;;;7.73;5.17;;;2.90;86.20;;;3.23;74.10;97910.00;5023587;28;20058;-46
2020/12/25 10:13:09;;;;;;;10.33;5.43;;;2.90;87.60;;;3.23;73.90;97906.53;5022678;28;20050;-46
2020/12/25 10:15:37;;;;;;;12.67;6.73;;;2.90;85.70;;;3.27;74.08;97916.72;5022601;28;20054;-45
2020/12/25 10:18:04;;;;;;;12.63;6.70;;;2.90;85.80;;;3.24;73.30;97911.69;5023561;28;20056;-45
2020/12/25 10:20:32;;;;;;;9.57;5.27;;;2.90;85.80;;;3.26;73.50;97912.44;5023401;28;20233;-46
2020/12/25 10:22:59;;;;;;;7.67;4.43;;;2.90;84.80;;;3.14;72.78;97919.41;5023283;28;20048;-45
2020/12/25 10:25:26;;;;;;;7.90;4.60;;;2.80;84.20;;;2.98;72.82;97907.41;5022765;28;20034;-44
2020/12/25 10:27:54;;;;;;;6.43;3.50;;;2.70;84.60;;;2.85;71.28;97910.06;5021713;28;20045;-45
2020/12/25 10:30:21;;;;;;;7.27;4.83;;;2.60;82.10;;;2.82;72.34;97905.84;5023033;28;20052;-45
2020/12/25 10:32:49;;;;;;;7.10;4.37;;;2.50;82.80;;;2.88;72.22;97904.59;5023312;28;20050;-44
2020/12/25 10:35:16;;;;;;;8.70;4.67;;;2.60;84.30;;;2.91;72.51;97907.03;5022565;28;20046;-44
2020/12/25 10:37:44;;;;;;;5.50;3.60;;;2.60;84.70;;;2.92;72.54;97912.16;5022457;28;20345;-45
2020/12/25 10:40:27;;;;;;;6.50;4.03;;;2.60;83.60;;;2.99;72.81;97907.31;5022128;28;20361;-45
2020/12/25 10:42:55;;;;;;;6.87;4.20;;;2.70;83.70;;;3.00;72.01;97908.16;5018945;28;20050;-44